Time;durP1;ratioP1;P1;durP2;ratioP2;P2;SDS_P1;SDS_P2;PMS_P1;PMS_P2;Temp;Humidity;BMP_temperature;BMP_pressure;BME280_temperature;BME280_humidity;BME280_pressure;Samples;Min_cycle;Max_cycle;Signal;HPM_P1;HPM_P2
2022/04/12 00:01:54;;;;;;;3.50;2.93;;;2.50;99.90;;;;;;5074778;28;20114;-73
2022/04/12 00:04:21;;;;;;;5.40;2.80;;;2.50;99.90;;;;;;5075436;28;20548;-73
2022/04/12 00:06:49;;;;;;;6.00;2.67;;;2.60;99.90;;;;;;5073804;28;20052;-74
2022/04/12 00:09:16;;;;;;;5.00;3.43;;;2.60;99.90;;;;;;5073639;28;20044;-73
2022/04/12 00:11:43;;;;;;;6.80;3.00;;;2.60;99.90;;;;;;5074757;28;20044;-74
2022/04/12 00:14:10;;;;;;;3.67;2.97;;;2.60;99.90;;;;;;5089532;28;20076;-73
2022/04/12 00:16:37;;;;;;;2.87;2.67;;;2.70;99.90;;;;;;5093218;28;20516;-74
2022/04/12 00:19:03;;;;;;;9.37;3.53;;;2.70;99.90;;;;;;5093850;28;20044;-74
2022/04/12 00:21:34;;;;;;;8.80;3.23;;;2.60;99.90;;;;;;5092146;28;20037;-73
2022/04/12 00:24:03;;;;;;;4.60;2.80;;;2.50;99.90;;;;;;5092028;28;20086;-75
2022/04/12 00:26:29;;;;;;;4.37;2.97;;;2.40;99.90;;;;;;5091417;28;20040;-73
2022/04/12 00:28:56;;;;;;;6.17;2.93;;;2.30;99.90;;;;;;5081214;28;20044;-74
2022/04/12 00:31:23;;;;;;;5.37;3.07;;;2.30;99.90;;;;;;5073793;28;20036;-73
2022/04/12 00:33:49;;;;;;;2.73;2.47;;;2.30;99.90;;;;;;5073122;28;20048;-73
2022/04/12 00:36:16;;;;;;;2.80;2.60;;;2.30;99.90;;;;;;5074442;28;20048;-74
2022/04/12 00:38:42;;;;;;;3.43;2.40;;;2.40;99.90;;;;;;5073460;28;20052;-74
2022/04/12 00:41:11;;;;;;;2.83;2.53;;;2.40;99.90;;;;;;5073138;28;20044;-74
2022/04/12 00:43:39;;;;;;;3.33;3.10;;;2.40;99.90;;;;;;5088470;28;20078;-73
2022/04/12 00:46:06;;;;;;;3.70;2.30;;;2.40;99.90;;;;;;5074081;28;20049;-74
2022/04/12 00:48:33;;;;;;;3.13;1.93;;;2.40;99.90;;;;;;5073187;28;20374;-74
2022/04/12 00:51:00;;;;;;;5.57;2.90;;;2.30;99.90;;;;;;5073392;28;20110;-74
2022/04/12 00:53:28;;;;;;;3.43;2.67;;;2.40;99.90;;;;;;5072946;28;20048;-73
2022/04/12 00:55:55;;;;;;;5.03;3.30;;;2.40;99.90;;;;;;5075635;28;20047;-73
2022/04/12 00:58:24;;;;;;;2.70;2.50;;;2.40;99.90;;;;;;5080724;28;20048;-73
2022/04/12 01:00:51;;;;;;;3.93;3.17;;;2.40;99.90;;;;;;5093952;28;20051;-73
2022/04/12 01:03:18;;;;;;;11.17;2.90;;;2.40;99.90;;;;;;5091663;28;20448;-74
2022/04/12 01:05:45;;;;;;;2.77;2.57;;;2.40;99.90;;;;;;5080105;28;20509;-73
2022/04/12 01:08:12;;;;;;;3.17;2.23;;;2.40;99.90;;;;;;5078756;28;20105;-73
2022/04/12 01:10:38;;;;;;;4.00;2.90;;;2.40;99.90;;;;;;5083825;28;20097;-73
2022/04/12 01:13:05;;;;;;;3.97;3.13;;;2.30;99.90;;;;;;5080310;28;20053;-73
2022/04/12 01:15:35;;;;;;;3.63;2.87;;;2.30;99.90;;;;;;5090234;28;20052;-73
2022/04/12 01:18:01;;;;;;;4.07;2.80;;;2.40;99.90;;;;;;5094614;28;20404;-76
2022/04/12 01:20:30;;;;;;;8.80;3.23;;;2.40;99.90;;;;;;5095573;28;20192;-74
2022/04/12 01:23:02;;;;;;;5.40;2.73;;;2.40;99.90;;;;;;5076914;28;20044;-74
2022/04/12 01:25:31;;;;;;;8.10;4.07;;;2.40;99.90;;;;;;5077800;28;20094;-74
2022/04/12 01:27:57;;;;;;;2.87;2.40;;;2.30;99.90;;;;;;5077823;28;20048;-73
2022/04/12 01:30:24;;;;;;;3.40;2.70;;;2.20;99.90;;;;;;5076078;28;20494;-73
2022/04/12 01:32:51;;;;;;;3.83;2.83;;;2.20;99.90;;;;;;5076411;28;20643;-74
2022/04/12 01:35:17;;;;;;;2.27;2.17;;;2.20;99.90;;;;;;5076498;28;20045;-73
2022/04/12 01:37:44;;;;;;;5.33;2.90;;;2.20;99.90;;;;;;5077622;28;20393;-74
2022/04/12 01:40:11;;;;;;;6.83;3.30;;;2.20;99.90;;;;;;5087557;28;20388;-74
2022/04/12 01:42:39;;;;;;;5.37;2.97;;;2.20;99.90;;;;;;5096370;28;20044;-73
2022/04/12 01:45:07;;;;;;;2.93;2.57;;;2.10;99.90;;;;;;5094887;28;20040;-74
2022/04/12 01:47:34;;;;;;;3.60;2.40;;;2.10;99.90;;;;;;5094403;28;20036;-73
2022/04/12 01:50:01;;;;;;;3.13;2.70;;;2.00;99.90;;;;;;5094852;28;20054;-73
2022/04/12 01:52:27;;;;;;;4.07;3.67;;;2.10;99.90;;;;;;5096490;28;20389;-73
2022/04/12 01:54:54;;;;;;;2.47;2.27;;;2.10;99.90;;;;;;5096240;28;20551;-74
2022/04/12 01:57:21;;;;;;;4.17;3.60;;;1.90;99.90;;;;;;5094698;28;20109;-73
2022/04/12 01:59:49;;;;;;;3.40;3.07;;;1.90;99.90;;;;;;5079371;28;20091;-74
2022/04/12 02:02:15;;;;;;;4.07;2.63;;;2.00;99.90;;;;;;5075980;28;20089;-74
2022/04/12 02:04:42;;;;;;;4.63;3.03;;;2.00;99.90;;;;;;5084264;28;20452;-73
2022/04/12 02:07:09;;;;;;;3.20;2.70;;;2.10;99.90;;;;;;5093146;28;20050;-73
2022/04/12 02:09:35;;;;;;;6.17;2.83;;;2.00;99.90;;;;;;5076578;28;20045;-73
2022/04/12 02:12:02;;;;;;;2.73;2.50;;;2.00;99.90;;;;;;5076281;28;20072;-73
2022/04/12 02:14:29;;;;;;;6.33;3.10;;;1.90;99.90;;;;;;5075608;28;20056;-73
2022/04/12 02:16:57;;;;;;;4.90;2.47;;;2.00;99.90;;;;;;5077992;28;20045;-73
2022/04/12 02:19:23;;;;;;;2.97;2.70;;;2.00;99.90;;;;;;5094324;28;20432;-73
2022/04/12 02:21:50;;;;;;;4.03;2.60;;;1.90;99.90;;;;;;5093697;28;20048;-74
2022/04/12 02:24:17;;;;;;;3.77;3.10;;;1.90;99.90;;;;;;5095680;28;20043;-73
2022/04/12 02:26:44;;;;;;;4.17;2.77;;;1.80;99.90;;;;;;5096183;28;20047;-73
2022/04/12 02:29:13;;;;;;;4.73;2.87;;;1.70;99.90;;;;;;5093987;28;20088;-73
2022/04/12 02:31:40;;;;;;;2.83;2.43;;;1.70;99.90;;;;;;5093652;28;20055;-73
2022/04/12 02:34:08;;;;;;;9.73;3.60;;;1.50;99.90;;;;;;5095172;28;20089;-73
2022/04/12 02:36:34;;;;;;;3.40;3.10;;;1.50;99.90;;;;;;5079661;28;20452;-72
2022/04/12 02:39:01;;;;;;;4.27;3.33;;;1.50;99.90;;;;;;5075615;28;20052;-73
2022/04/12 02:41:28;;;;;;;3.50;2.23;;;1.50;99.90;;;;;;5076364;28;20049;-74
2022/04/12 02:43:54;;;;;;;4.30;2.30;;;1.60;99.90;;;;;;5077743;28;20044;-74
2022/04/12 02:46:21;;;;;;;6.50;3.27;;;1.70;99.90;;;;;;5074980;28;20543;-73
2022/04/12 02:48:47;;;;;;;3.30;3.00;;;1.70;99.90;;;;;;5075176;28;20501;-74
2022/04/12 02:51:15;;;;;;;6.10;2.93;;;1.80;99.90;;;;;;5076051;28;20090;-74
2022/04/12 02:53:42;;;;;;;4.60;3.57;;;1.70;99.90;;;;;;5076184;28;20044;-74
2022/04/12 02:56:09;;;;;;;11.07;3.10;;;1.70;99.90;;;;;;5075400;28;20049;-73
2022/04/12 02:58:35;;;;;;;5.67;3.47;;;1.70;99.90;;;;;;5074740;28;20489;-74
2022/04/12 03:01:02;;;;;;;5.93;3.47;;;1.60;99.90;;;;;;5075967;28;20044;-72
2022/04/12 03:03:29;;;;;;;3.53;2.90;;;1.60;99.90;;;;;;5075927;28;20049;-73
2022/04/12 03:05:55;;;;;;;3.07;2.70;;;1.60;99.90;;;;;;5075003;28;20208;-73
2022/04/12 03:08:23;;;;;;;6.57;3.33;;;1.60;99.90;;;;;;5092718;28;20044;-73
2022/04/12 03:10:50;;;;;;;5.07;3.33;;;1.50;99.90;;;;;;5095208;28;20409;-73
2022/04/12 03:13:16;;;;;;;4.33;3.67;;;1.50;99.90;;;;;;5088595;28;20093;-73
2022/04/12 03:15:43;;;;;;;4.53;2.87;;;1.30;99.90;;;;;;5094593;28;20055;-74
2022/04/12 03:18:10;;;;;;;3.63;3.43;;;1.30;99.90;;;;;;5093012;28;20044;-73
2022/04/12 03:20:37;;;;;;;8.90;2.73;;;1.30;99.90;;;;;;5094916;28;20123;-73
2022/04/12 03:23:04;;;;;;;5.07;3.30;;;1.20;99.90;;;;;;5093003;28;20101;-73
2022/04/12 03:25:31;;;;;;;3.63;3.30;;;1.10;99.90;;;;;;5094172;28;20101;-74
2022/04/12 03:27:58;;;;;;;2.93;2.70;;;1.00;99.90;;;;;;5092945;28;20040;-73
2022/04/12 03:30:25;;;;;;;3.77;3.40;;;1.10;99.90;;;;;;5094276;28;20059;-74
2022/04/12 03:32:51;;;;;;;2.73;2.23;;;1.10;99.90;;;;;;5075096;28;20502;-74
2022/04/12 03:35:19;;;;;;;3.67;3.37;;;1.00;99.90;;;;;;5074425;28;20098;-74
2022/04/12 03:37:45;;;;;;;4.00;3.43;;;1.00;99.90;;;;;;5074140;28;20082;-75
2022/04/12 03:40:13;;;;;;;5.00;3.57;;;1.00;99.90;;;;;;5075502;28;20555;-74
2022/04/12 03:42:41;;;;;;;5.10;3.13;;;0.90;99.90;;;;;;5094403;28;20052;-73
2022/04/12 03:45:08;;;;;;;4.50;3.43;;;0.90;99.90;;;;;;5092140;28;20048;-73
2022/04/12 03:47:35;;;;;;;3.03;2.73;;;0.90;99.90;;;;;;5093942;28;20048;-73
2022/04/12 03:50:01;;;;;;;5.10;4.13;;;0.90;99.90;;;;;;5092073;28;20090;-73
2022/04/12 03:52:28;;;;;;;7.07;4.70;;;1.00;99.90;;;;;;5094304;28;20078;-74
2022/04/12 03:54:54;;;;;;;8.37;4.80;;;1.00;99.90;;;;;;5092393;28;20048;-74
2022/04/12 03:57:24;;;;;;;5.80;3.97;;;1.00;99.90;;;;;;5093384;28;20044;-74
2022/04/12 03:59:52;;;;;;;12.70;4.30;;;0.90;99.90;;;;;;5090975;28;20048;-74
2022/04/12 04:02:18;;;;;;;9.27;4.23;;;0.90;99.90;;;;;;5093782;28;20086;-73
2022/04/12 04:04:45;;;;;;;5.27;4.70;;;1.00;99.90;;;;;;5094446;28;20052;-74
2022/04/12 04:07:12;;;;;;;5.83;4.13;;;0.90;99.90;;;;;;5093479;28;20551;-73
2022/04/12 04:09:38;;;;;;;4.60;4.00;;;0.90;99.90;;;;;;5093118;28;20050;-74
2022/04/12 04:12:06;;;;;;;6.33;4.07;;;0.80;99.90;;;;;;5077185;28;20098;-74
2022/04/12 04:14:33;;;;;;;8.70;4.20;;;0.80;99.90;;;;;;5073629;28;20130;-73
2022/04/12 04:17:01;;;;;;;4.50;3.57;;;0.80;99.90;;;;;;5075526;28;20044;-74
2022/04/12 04:19:28;;;;;;;5.17;4.23;;;0.70;99.90;;;;;;5084876;28;20048;-74
2022/04/12 04:21:55;;;;;;;6.67;5.27;;;0.70;99.90;;;;;;5085050;28;20453;-73
2022/04/12 04:24:23;;;;;;;5.97;5.37;;;0.70;99.90;;;;;;5084585;28;20048;-73
2022/04/12 04:26:55;;;;;;;7.00;5.67;;;0.80;99.90;;;;;;5093776;28;20044;-74
2022/04/12 04:29:22;;;;;;;4.93;4.13;;;0.80;99.90;;;;;;5074566;28;20056;-72
2022/04/12 04:31:49;;;;;;;8.37;6.13;;;0.80;99.90;;;;;;5072919;28;20084;-73
2022/04/12 04:34:17;;;;;;;6.87;5.50;;;0.80;99.90;;;;;;5073399;28;20041;-73
2022/04/12 04:36:44;;;;;;;6.07;5.40;;;0.90;99.90;;;;;;5091206;28;20051;-73
2022/04/12 04:39:10;;;;;;;5.50;5.00;;;1.00;99.90;;;;;;5076626;28;20511;-71
2022/04/12 04:41:37;;;;;;;7.80;5.33;;;1.00;99.90;;;;;;5074063;28;20063;-75
2022/04/12 04:44:04;;;;;;;6.20;5.53;;;1.00;99.90;;;;;;5074081;28;20048;-73
2022/04/12 04:46:31;;;;;;;8.97;5.13;;;1.00;99.90;;;;;;5073226;28;20098;-74
2022/04/12 04:48:57;;;;;;;6.30;4.57;;;1.10;99.90;;;;;;5074152;28;20079;-74
2022/04/12 04:51:25;;;;;;;6.90;5.00;;;1.30;99.90;;;;;;5083963;28;20101;-74
2022/04/12 04:53:58;;;;;;;7.10;5.23;;;1.40;99.90;;;;;;5093435;28;20040;-74
2022/04/12 04:56:25;;;;;;;14.63;6.87;;;1.40;99.90;;;;;;5093288;28;20052;-75
2022/04/12 04:58:51;;;;;;;15.50;8.23;;;1.50;99.90;;;;;;5090932;28;20036;-74
2022/04/12 05:01:20;;;;;;;10.97;7.83;;;1.60;99.90;;;;;;5091933;28;20452;-75
2022/04/12 05:03:47;;;;;;;11.17;9.00;;;1.70;99.90;;;;;;5092103;28;20076;-74
2022/04/12 05:06:14;;;;;;;11.03;6.73;;;1.80;99.90;;;;;;5092277;28;20059;-74
2022/04/12 05:08:42;;;;;;;11.77;7.33;;;2.00;99.90;;;;;;5092604;28;20052;-75
2022/04/12 05:11:08;;;;;;;8.70;5.87;;;2.20;99.90;;;;;;5077258;28;20045;-73
2022/04/12 05:13:35;;;;;;;9.67;6.00;;;2.30;99.90;;;;;;5073715;28;20482;-73
2022/04/12 05:16:01;;;;;;;9.33;6.97;;;2.40;99.90;;;;;;5073757;28;20094;-73
2022/04/12 05:18:28;;;;;;;8.67;4.43;;;2.40;99.90;;;;;;5078491;28;20044;-73
2022/04/12 05:20:55;;;;;;;6.30;5.70;;;2.50;99.90;;;;;;5090813;28;20083;-73
2022/04/12 05:23:21;;;;;;;7.80;5.00;;;2.50;99.90;;;;;;5091246;28;20044;-75
2022/04/12 05:25:53;;;;;;;5.83;5.20;;;2.50;99.90;;;;;;5093104;28;20048;-72
2022/04/12 05:28:20;;;;;;;12.60;6.00;;;2.60;99.90;;;;;;5091993;28;20048;-73
2022/04/12 05:30:48;;;;;;;5.13;4.73;;;2.60;99.90;;;;;;5073246;28;20048;-71
2022/04/12 05:33:15;;;;;;;13.20;5.27;;;2.70;99.90;;;;;;5073228;28;20064;-75
2022/04/12 05:35:41;;;;;;;6.00;5.27;;;2.80;99.90;;;;;;5072401;28;20052;-72
2022/04/12 05:38:08;;;;;;;5.90;5.30;;;3.00;99.90;;;;;;5073445;28;20444;-71
2022/04/12 05:40:35;;;;;;;7.20;4.77;;;3.20;99.90;;;;;;5072591;28;20044;-71
2022/04/12 05:43:03;;;;;;;8.47;6.00;;;3.30;99.90;;;;;;5073891;28;20486;-72
2022/04/12 05:45:30;;;;;;;9.37;6.27;;;3.50;99.90;;;;;;5073847;28;20048;-73
2022/04/12 05:47:57;;;;;;;8.13;6.33;;;3.70;99.90;;;;;;5094508;28;20444;-73
2022/04/12 05:50:25;;;;;;;11.87;6.17;;;3.90;99.90;;;;;;5078961;28;20492;-74
2022/04/12 05:52:52;;;;;;;6.47;5.80;;;4.20;99.90;;;;;;5076157;28;20093;-73
2022/04/12 05:55:21;;;;;;;9.03;5.87;;;4.50;99.90;;;;;;5077142;28;20098;-72
2022/04/12 05:57:52;;;;;;;6.37;5.70;;;4.70;99.90;;;;;;5076247;28;20053;-74
2022/04/12 06:00:21;;;;;;;7.72;6.20;;;4.90;99.90;;;;;;5078230;28;20098;-74
2022/04/12 06:02:48;;;;;;;9.43;6.97;;;5.20;99.90;;;;;;5077137;28;20052;-73
2022/04/12 06:05:16;;;;;;;13.03;6.60;;;5.50;99.90;;;;;;5076894;28;20036;-74
2022/04/12 06:07:43;;;;;;;6.83;5.57;;;5.80;99.90;;;;;;5076936;28;20052;-75
2022/04/12 06:10:11;;;;;;;9.17;5.97;;;6.20;99.90;;;;;;5090762;28;20036;-74
2022/04/12 06:12:38;;;;;;;9.77;5.73;;;6.60;99.90;;;;;;5085808;28;20036;-74
2022/04/12 06:15:06;;;;;;;21.10;12.20;;;6.80;99.90;;;;;;5079069;28;20090;-75
2022/04/12 06:17:36;;;;;;;21.83;10.27;;;7.20;99.90;;;;;;5076732;28;20367;-76
2022/04/12 06:20:05;;;;;;;12.93;8.53;;;7.40;99.90;;;;;;5075880;28;20056;-75
2022/04/12 06:22:32;;;;;;;10.23;7.43;;;7.60;99.90;;;;;;5075867;28;20094;-75
2022/04/12 06:24:59;;;;;;;10.93;8.68;;;7.70;99.90;;;;;;5076444;28;20118;-73
2022/04/12 06:27:31;;;;;;;10.75;8.57;;;8.00;99.90;;;;;;5076596;28;20052;-73
2022/04/12 06:29:58;;;;;;;11.40;8.25;;;8.40;99.90;;;;;;5091234;28;20052;-74
2022/04/12 06:32:25;;;;;;;13.32;9.15;;;8.60;99.90;;;;;;5091414;28;20044;-72
2022/04/12 06:34:54;;;;;;;10.32;7.40;;;9.00;99.90;;;;;;5095634;28;20052;-74
2022/04/12 06:37:24;;;;;;;10.38;7.45;;;9.40;99.90;;;;;;5093805;28;20468;-74
2022/04/12 06:39:50;;;;;;;12.20;6.70;;;9.70;99.90;;;;;;5093892;28;20040;-73
2022/04/12 06:42:17;;;;;;;9.88;7.07;;;10.10;98.30;;;;;;5087263;28;20135;-78
2022/04/12 06:44:44;;;;;;;8.25;6.07;;;10.40;97.40;;;;;;5089320;28;20036;-73
2022/04/12 06:47:10;;;;;;;9.52;6.40;;;10.80;96.30;;;;;;5095368;28;20117;-78
2022/04/12 06:49:37;;;;;;;7.60;4.90;;;11.10;94.70;;;;;;5095164;28;20097;-77
2022/04/12 06:52:05;;;;;;;11.10;6.25;;;11.30;92.30;;;;;;5095522;28;20096;-75
2022/04/12 06:54:32;;;;;;;7.05;5.07;;;11.70;91.70;;;;;;5093528;28;20044;-74
2022/04/12 06:56:59;;;;;;;6.93;5.30;;;11.70;88.20;;;;;;5093247;28;20121;-74
2022/04/12 06:59:25;;;;;;;11.13;6.10;;;11.90;85.50;;;;;;5092218;28;20040;-73
2022/04/12 07:01:52;;;;;;;6.43;5.75;;;12.20;85.50;;;;;;5093014;28;20052;-74
2022/04/12 07:04:19;;;;;;;6.95;5.38;;;12.70;83.60;;;;;;5075649;28;20040;-74
2022/04/12 07:06:45;;;;;;;7.95;5.40;;;12.90;81.60;;;;;;5074784;28;20052;-74
2022/04/12 07:09:18;;;;;;;9.45;5.20;;;13.30;77.60;;;;;;5076673;28;20090;-73
2022/04/12 07:11:45;;;;;;;7.50;4.50;;;13.60;78.40;;;;;;5086493;28;20394;-73
2022/04/12 07:14:12;;;;;;;5.95;4.43;;;13.90;75.40;;;;;;5074800;28;20094;-73
2022/04/12 07:16:38;;;;;;;5.70;4.07;;;14.00;72.20;;;;;;5075090;28;20456;-73
2022/04/12 07:19:06;;;;;;;6.60;3.72;;;14.40;70.70;;;;;;5074504;28;20052;-73
2022/04/12 07:21:32;;;;;;;7.85;4.40;;;14.40;67.40;;;;;;5075082;28;20055;-73
2022/04/12 07:23:59;;;;;;;5.22;3.83;;;14.80;68.20;;;;;;5074730;28;20048;-76
2022/04/12 07:26:28;;;;;;;6.47;3.50;;;15.10;67.10;;;;;;5084959;28;20040;-73
2022/04/12 07:28:54;;;;;;;4.13;3.10;;;14.80;62.20;;;;;;5094513;28;20078;-75
2022/04/12 07:31:22;;;;;;;5.47;3.95;;;14.60;63.10;;;;;;5088839;28;20052;-75
2022/04/12 07:33:49;;;;;;;5.55;3.20;;;14.70;62.10;;;;;;5075636;28;20052;-73
2022/04/12 07:36:15;;;;;;;3.95;3.58;;;15.00;61.90;;;;;;5090805;28;20456;-73
2022/04/12 07:38:42;;;;;;;4.85;3.47;;;15.00;60.70;;;;;;5078442;28;20055;-74
2022/04/12 07:41:09;;;;;;;6.07;4.60;;;15.40;60.90;;;;;;5073650;28;20116;-72
2022/04/12 07:43:38;;;;;;;6.57;4.05;;;15.30;59.70;;;;;;5073807;28;20054;-72
2022/04/12 07:46:05;;;;;;;4.95;3.55;;;16.00;60.10;;;;;;5073760;28;20059;-72
2022/04/12 07:48:32;;;;;;;5.95;4.72;;;15.90;58.20;;;;;;5073757;28;20057;-72
2022/04/12 07:50:58;;;;;;;5.40;3.97;;;16.40;59.20;;;;;;5073636;28;20048;-72
2022/04/12 07:53:25;;;;;;;5.90;4.18;;;16.50;57.80;;;;;;5073784;28;20453;-72
2022/04/12 07:55:52;;;;;;;5.82;4.20;;;16.90;58.70;;;;;;5088085;28;20093;-73
2022/04/12 07:58:19;;;;;;;5.93;3.15;;;17.20;56.60;;;;;;5093554;28;20044;-73
2022/04/12 08:00:47;;;;;;;3.88;3.47;;;17.30;55.30;;;;;;5093831;28;20051;-72
2022/04/12 08:03:14;;;;;;;3.33;3.03;;;16.90;54.50;;;;;;5093978;28;20052;-73
2022/04/12 08:05:40;;;;;;;5.28;3.30;;;16.90;55.10;;;;;;5091552;28;20471;-74
2022/04/12 08:08:07;;;;;;;4.68;3.85;;;17.10;54.90;;;;;;5093453;28;20493;-74
2022/04/12 08:10:34;;;;;;;5.40;4.20;;;17.60;56.30;;;;;;5092437;28;20056;-72
2022/04/12 08:13:00;;;;;;;4.18;3.75;;;18.00;55.80;;;;;;5090924;28;20044;-75
2022/04/12 08:15:27;;;;;;;4.85;3.83;;;18.40;54.40;;;;;;5090584;28;20044;-74
2022/04/12 08:17:55;;;;;;;5.03;3.00;;;18.60;53.50;;;;;;5093760;28;20109;-73
2022/04/12 08:20:22;;;;;;;3.80;3.13;;;18.50;51.20;;;;;;5093295;28;20051;-72
2022/04/12 08:22:52;;;;;;;3.50;3.20;;;17.80;50.60;;;;;;5093350;28;20147;-73
2022/04/12 08:25:19;;;;;;;5.05;3.13;;;17.20;52.30;;;;;;5093233;28;20048;-74
2022/04/12 08:27:45;;;;;;;3.17;2.88;;;16.60;53.10;;;;;;5092103;28;20044;-74
2022/04/12 08:30:13;;;;;;;4.78;3.08;;;16.40;54.10;;;;;;5093713;28;20498;-74
2022/04/12 08:32:39;;;;;;;7.43;3.72;;;17.00;53.80;;;;;;5093055;28;20048;-73
2022/04/12 08:35:09;;;;;;;3.85;3.47;;;17.70;52.80;;;;;;5086853;28;20044;-73
2022/04/12 08:37:35;;;;;;;5.07;3.70;;;18.00;51.00;;;;;;5091239;28;20474;-75
2022/04/12 08:40:02;;;;;;;4.97;4.07;;;18.10;51.20;;;;;;5095690;28;20047;-70
2022/04/12 08:42:29;;;;;;;4.05;3.65;;;18.50;50.70;;;;;;5093274;28;20102;-70
2022/04/12 08:44:58;;;;;;;6.18;4.70;;;18.40;50.30;;;;;;5082526;28;20490;-70
2022/04/12 08:47:25;;;;;;;5.25;4.75;;;18.90;49.40;;;;;;5073787;28;20582;-71
2022/04/12 08:49:52;;;;;;;8.18;3.95;;;18.90;48.30;;;;;;5084079;28;20051;-73
2022/04/12 08:52:20;;;;;;;5.75;4.55;;;18.60;48.20;;;;;;5085718;28;20048;-72
2022/04/12 08:54:46;;;;;;;4.20;3.67;;;19.00;49.20;;;;;;5084304;28;20040;-70
2022/04/12 08:57:14;;;;;;;6.07;3.78;;;19.20;47.90;;;;;;5078578;28;20044;-71
2022/04/12 08:59:42;;;;;;;6.45;4.45;;;18.80;47.00;;;;;;5079551;28;20102;-70
2022/04/12 09:02:09;;;;;;;4.35;3.08;;;18.10;48.00;;;;;;5084222;28;20047;-72
2022/04/12 09:04:36;;;;;;;5.70;3.58;;;18.10;49.20;;;;;;5077357;28;20040;-73
2022/04/12 09:07:07;;;;;;;4.05;3.65;;;18.20;48.60;;;;;;5082176;28;20040;-74
2022/04/12 09:09:39;;;;;;;6.97;4.32;;;18.00;48.50;;;;;;5082317;28;20045;-75
2022/04/12 09:12:09;;;;;;;6.10;4.35;;;18.20;48.50;;;;;;5101887;28;20040;-75
2022/04/12 09:14:40;;;;;;;4.43;3.65;;;19.00;48.50;;;;;;5082014;28;20048;-71
2022/04/12 09:17:08;;;;;;;6.32;3.17;;;18.10;48.20;;;;;;5083035;28;20396;-75
2022/04/12 09:19:40;;;;;;;5.00;3.70;;;18.20;49.70;;;;;;5085111;28;20044;-73
2022/04/12 09:22:11;;;;;;;6.78;3.72;;;18.40;48.80;;;;;;5080444;28;20093;-74
2022/04/12 09:24:44;;;;;;;6.72;4.15;;;17.90;47.70;;;;;;5082433;28;20040;-73
2022/04/12 09:27:13;;;;;;;9.52;3.50;;;17.10;48.70;;;;;;5092573;28;20052;-73
2022/04/12 09:29:44;;;;;;;5.43;3.10;;;17.30;50.00;;;;;;5096623;28;20043;-73
2022/04/12 09:32:13;;;;;;;6.22;3.97;;;17.50;49.80;;;;;;5096613;28;20134;-74
2022/04/12 09:34:40;;;;;;;5.25;3.55;;;17.60;48.80;;;;;;5096530;28;20113;-73
2022/04/12 09:37:18;;;;;;;6.88;4.10;;;16.80;48.50;;;;;;5096661;28;20055;-74
2022/04/12 09:39:52;;;;;;;3.80;2.85;;;16.40;49.70;;;;;;5096904;28;20518;-74
2022/04/12 09:42:19;;;;;;;6.30;3.70;;;16.70;49.60;;;;;;5096865;28;20094;-74
2022/04/12 09:45:05;;;;;;;6.25;3.15;;;17.00;49.50;;;;;;5096666;28;20052;-73
2022/04/12 09:47:32;;;;;;;5.13;3.92;;;16.70;48.90;;;;;;5096206;28;20109;-74
2022/04/12 09:50:01;;;;;;;5.43;3.90;;;16.60;48.30;;;;;;5096367;28;20048;-73
2022/04/12 09:52:28;;;;;;;4.05;3.22;;;17.00;49.00;;;;;;5095911;28;20430;-74
2022/04/12 09:54:56;;;;;;;4.57;3.30;;;17.80;48.30;;;;;;5096387;28;20052;-73
2022/04/12 09:57:23;;;;;;;6.82;4.18;;;17.30;48.30;;;;;;5095938;28;20052;-74
2022/04/12 09:59:53;;;;;;;3.75;3.45;;;17.40;48.10;;;;;;5096175;28;20070;-74
2022/04/12 10:02:21;;;;;;;4.45;3.97;;;17.50;47.20;;;;;;5096054;28;20157;-74
2022/04/12 10:04:49;;;;;;;6.97;4.82;;;17.30;47.80;;;;;;5095989;28;20051;-74
2022/04/12 10:07:19;;;;;;;4.72;4.10;;;17.60;47.90;;;;;;5095998;28;20048;-74
2022/04/12 10:09:48;;;;;;;13.45;3.67;;;17.80;47.20;;;;;;5095879;28;20114;-74
2022/04/12 10:12:17;;;;;;;7.90;4.28;;;17.60;46.80;;;;;;5095785;28;20044;-73
2022/04/12 10:14:44;;;;;;;6.03;3.22;;;17.20;47.50;;;;;;5095770;28;20086;-74
2022/04/12 10:17:12;;;;;;;5.30;4.35;;;18.20;46.50;;;;;;5095509;28;20485;-73
2022/04/12 10:19:39;;;;;;;3.78;3.33;;;19.10;46.30;;;;;;5095523;28;20455;-74
2022/04/12 10:22:06;;;;;;;4.47;3.85;;;18.60;45.60;;;;;;5095806;28;20047;-74
2022/04/12 10:24:34;;;;;;;4.70;4.10;;;17.90;47.10;;;;;;5095761;28;20048;-74
2022/04/12 10:27:01;;;;;;;5.50;4.82;;;18.20;47.90;;;;;;5095532;28;20048;-73
2022/04/12 10:29:29;;;;;;;4.55;4.05;;;17.50;47.50;;;;;;5095357;28;20051;-73
2022/04/12 10:31:57;;;;;;;6.53;4.10;;;17.10;48.40;;;;;;5095418;28;20048;-73
2022/04/12 10:34:24;;;;;;;5.53;3.65;;;17.40;49.30;;;;;;5094387;28;20063;-74
2022/04/12 10:37:08;;;;;;;6.78;5.10;;;17.70;49.00;;;;;;5095284;28;20101;-73
2022/04/12 10:39:39;;;;;;;4.47;3.50;;;18.20;48.80;;;;;;5095326;28;20098;-75
2022/04/12 10:42:09;;;;;;;4.88;4.10;;;18.60;47.90;;;;;;5095670;28;20397;-74
2022/04/12 10:44:43;;;;;;;6.43;4.10;;;18.70;47.70;;;;;;5096252;28;20117;-73
2022/04/12 10:47:24;;;;;;;6.10;3.92;;;19.40;47.30;;;;;;5095302;28;20508;-74
2022/04/12 10:49:58;;;;;;;;;;;19.10;47.40;;;;;;5095616;28;20055;-74
2022/04/12 10:52:33;;;;;;;5.03;3.85;;;20.40;46.00;;;;;;5094968;28;19920;-74
2022/04/12 10:55:01;;;;;;;5.72;4.60;;;20.90;44.50;;;;;;5095184;28;20044;-74
2022/04/12 10:57:28;;;;;;;5.32;4.57;;;20.90;44.50;;;;;;5095108;28;20131;-74
2022/04/12 11:00:02;;;;;;;7.97;5.28;;;20.90;44.60;;;;;;5094718;28;20493;-73
2022/04/12 11:02:31;;;;;;;7.80;5.07;;;21.80;44.40;;;;;;5094981;28;20047;-73
2022/04/12 11:04:58;;;;;;;9.27;5.57;;;21.40;42.70;;;;;;5095207;28;20048;-74
2022/04/12 11:07:30;;;;;;;4.40;3.83;;;21.30;43.20;;;;;;5095010;28;20109;-73
2022/04/12 11:10:30;;;;;;;5.30;4.13;;;22.30;41.90;;;;;;5094764;28;20113;-74
2022/04/12 11:13:07;;;;;;;6.00;4.50;;;21.40;41.50;;;;;;5094648;28;20116;-74
2022/04/12 11:15:37;;;;;;;6.80;4.40;;;21.10;43.80;;;;;;5094700;28;20146;-74
2022/04/12 11:18:09;;;;;;;5.85;4.75;;;22.40;43.10;;;;;;5094563;28;20513;-74
2022/04/12 11:20:37;;;;;;;5.47;4.72;;;23.30;41.20;;;;;;5094554;28;20048;-74
2022/04/12 11:23:08;;;;;;;3.92;3.63;;;22.00;40.30;;;;;;5094712;28;20040;-74
2022/04/12 11:25:35;;;;;;;;;;;21.40;42.10;;;;;;5094967;28;20051;-74
2022/04/12 11:28:02;;;;;;;5.00;4.57;;;20.60;42.60;;;;;;5094504;28;19924;-74
2022/04/12 11:30:29;;;;;;;5.07;4.60;;;20.70;42.90;;;;;;5094135;28;20040;-73
2022/04/12 11:32:58;;;;;;;7.28;4.80;;;21.70;42.50;;;;;;5094430;28;20089;-73
2022/04/12 11:35:25;;;;;;;5.05;4.13;;;22.40;42.40;;;;;;5094486;28;20051;-74
2022/04/12 11:37:51;;;;;;;4.82;4.40;;;22.70;41.50;;;;;;5094371;28;20048;-73
2022/04/12 11:40:18;;;;;;;6.10;3.90;;;20.80;42.80;;;;;;5094109;28;20052;-73
2022/04/12 11:42:45;;;;;;;7.05;3.88;;;21.20;43.80;;;;;;5094326;28;20055;-74
2022/04/12 11:45:12;;;;;;;6.22;3.95;;;21.10;43.40;;;;;;5093812;28;20497;-73
2022/04/12 11:47:43;;;;;;;5.95;4.18;;;21.70;43.00;;;;;;5094366;28;20095;-74
2022/04/12 11:50:16;;;;;;;6.22;4.30;;;22.00;42.10;;;;;;5093892;28;20465;-74
2022/04/12 11:52:44;;;;;;;5.78;4.15;;;22.10;40.60;;;;;;5093942;28;20097;-73
2022/04/12 11:55:12;;;;;;;5.32;3.38;;;22.10;41.30;;;;;;5093762;28;20485;-73
2022/04/12 11:57:39;;;;;;;4.35;3.83;;;22.70;41.10;;;;;;5093964;28;20073;-73
2022/04/12 12:00:07;;;;;;;5.63;4.47;;;23.30;40.50;;;;;;5094044;28;20071;-73
2022/04/12 12:02:37;;;;;;;4.70;3.97;;;23.30;39.60;;;;;;5093887;28;20055;-74
2022/04/12 12:05:05;;;;;;;5.90;4.32;;;23.60;39.90;;;;;;5093767;28;20134;-74
2022/04/12 12:07:36;;;;;;;6.45;4.55;;;23.40;38.60;;;;;;5093793;28;20055;-74
2022/04/12 12:10:05;;;;;;;5.38;4.45;;;22.70;39.00;;;;;;5093826;28;20052;-74
2022/04/12 12:12:33;;;;;;;6.55;4.45;;;22.00;40.60;;;;;;5093604;28;20074;-73
2022/04/12 12:14:59;;;;;;;5.35;4.15;;;21.60;40.60;;;;;;5093520;28;20058;-73
2022/04/12 12:17:28;;;;;;;5.82;5.00;;;21.40;40.70;;;;;;5093675;28;20048;-73
2022/04/12 12:19:55;;;;;;;5.70;4.45;;;20.40;42.10;;;;;;5093670;28;20081;-73
2022/04/12 12:22:22;;;;;;;4.57;4.05;;;20.60;43.00;;;;;;5093064;28;20548;-73
2022/04/12 12:24:52;;;;;;;5.65;5.15;;;20.90;42.50;;;;;;5093578;28;20048;-74
2022/04/12 12:27:30;;;;;;;5.00;4.60;;;21.40;42.10;;;;;;5093380;28;20048;-74
2022/04/12 12:30:01;;;;;;;4.85;4.35;;;21.70;41.20;;;;;;5093260;28;20082;-73
2022/04/12 12:32:31;;;;;;;4.20;3.80;;;21.30;40.60;;;;;;5093277;28;20047;-73
2022/04/12 12:35:02;;;;;;;4.30;3.70;;;20.10;41.70;;;;;;5093434;28;20052;-73
2022/04/12 12:37:29;;;;;;;5.90;4.00;;;20.80;41.90;;;;;;5093313;28;20134;-73
2022/04/12 12:39:58;;;;;;;4.45;3.90;;;20.40;41.00;;;;;;5093403;28;20047;-74
2022/04/12 12:42:24;;;;;;;6.28;3.58;;;21.50;41.30;;;;;;5093260;28;20048;-74
2022/04/12 12:44:51;;;;;;;4.32;3.90;;;22.10;40.70;;;;;;5093241;28;20105;-73
2022/04/12 12:47:21;;;;;;;4.88;4.00;;;21.80;40.20;;;;;;5093102;28;20060;-73
2022/04/12 12:49:51;;;;;;;5.47;4.07;;;20.70;40.70;;;;;;5093202;28;20074;-74
2022/04/12 12:52:18;;;;;;;7.63;4.32;;;21.00;41.90;;;;;;5093193;28;20047;-74
2022/04/12 12:54:54;;;;;;;4.72;4.30;;;19.80;42.10;;;;;;5092951;28;20383;-74